sensor_id;sensor_type;location;lat;lon;timestamp;P1;durP1;ratioP1;P2;durP2;ratioP2
75342;SDS011;63936;51.006;13.764;2023-09-19T00:00:02;13;;;6;;
75342;SDS011;63936;51.006;13.764;2023-09-19T00:02:03;13;;;6;;
75342;SDS011;63936;51.006;13.764;2023-09-19T00:04:03;14;;;7;;
75342;SDS011;63936;51.006;13.764;2023-09-19T00:06:03;15;;;7;;
75342;SDS011;63936;51.006;13.764;2023-09-19T00:08:03;15;;;8;;
75342;SDS011;63936;51.006;13.764;2023-09-19T00:10:06;18;;;8;;
75342;SDS011;63936;51.006;13.764;2023-09-19T00:12:04;16;;;7;;
75342;SDS011;63936;51.006;13.764;2023-09-19T00:14:02;16;;;7;;
75342;SDS011;63936;51.006;13.764;2023-09-19T00:16:08;20;;;9;;
75342;SDS011;63936;51.006;13.764;2023-09-19T00:18:01;19;;;9;;
75342;SDS011;63936;51.006;13.764;2023-09-19T00:20:04;20;;;8;;
75342;SDS011;63936;51.006;13.764;2023-09-19T00:22:02;20;;;8;;
75342;SDS011;63936;51.006;13.764;2023-09-19T00:24:04;20;;;9;;
75342;SDS011;63936;51.006;13.764;2023-09-19T00:26:03;21;;;9;;
75342;SDS011;63936;51.006;13.764;2023-09-19T00:28:03;22;;;9;;
75342;SDS011;63936;51.006;13.764;2023-09-19T00:30:09;23;;;9;;
75342;SDS011;63936;51.006;13.764;2023-09-19T00:32:04;22;;;9;;
75342;SDS011;63936;51.006;13.764;2023-09-19T00:34:01;21;;;10;;
75342;SDS011;63936;51.006;13.764;2023-09-19T00:36:05;24;;;10;;
75342;SDS011;63936;51.006;13.764;2023-09-19T00:38:03;22;;;9;;
75342;SDS011;63936;51.006;13.764;2023-09-19T00:40:03;24;;;10;;
75342;SDS011;63936;51.006;13.764;2023-09-19T00:42:04;24;;;10;;
75342;SDS011;63936;51.006;13.764;2023-09-19T00:44:03;22;;;9;;
75342;SDS011;63936;51.006;13.764;2023-09-19T00:46:06;21;;;10;;
75342;SDS011;63936;51.006;13.764;2023-09-19T00:48:04;19;;;9;;
75342;SDS011;63936;51.006;13.764;2023-09-19T00:50:03;23;;;10;;
75342;SDS011;63936;51.006;13.764;2023-09-19T00:52:01;22;;;10;;
75342;SDS011;63936;51.006;13.764;2023-09-19T00:54:02;23;;;11;;
75342;SDS011;63936;51.006;13.764;2023-09-19T00:56:02;22;;;11;;
75342;SDS011;63936;51.006;13.764;2023-09-19T00:58:02;23;;;11;;
75342;SDS011;63936;51.006;13.764;2023-09-19T01:00:04;33;;;13;;
75342;SDS011;63936;51.006;13.764;2023-09-19T01:02:02;32;;;13;;
75342;SDS011;63936;51.006;13.764;2023-09-19T01:04:01;33;;;14;;
75342;SDS011;63936;51.006;13.764;2023-09-19T01:06:01;32;;;14;;
75342;SDS011;63936;51.006;13.764;2023-09-19T01:08:02;28;;;12;;
75342;SDS011;63936;51.006;13.764;2023-09-19T01:10:02;30;;;13;;
75342;SDS011;63936;51.006;13.764;2023-09-19T01:12:02;28;;;13;;
75342;SDS011;63936;51.006;13.764;2023-09-19T01:14:03;29;;;13;;
75342;SDS011;63936;51.006;13.764;2023-09-19T01:16:09;25;;;12;;
75342;SDS011;63936;51.006;13.764;2023-09-19T01:18:03;24;;;12;;
75342;SDS011;63936;51.006;13.764;2023-09-19T01:20:08;24;;;12;;
75342;SDS011;63936;51.006;13.764;2023-09-19T01:22:05;25;;;12;;
75342;SDS011;63936;51.006;13.764;2023-09-19T01:24:07;24;;;11;;
75342;SDS011;63936;51.006;13.764;2023-09-19T01:26:05;27;;;12;;
75342;SDS011;63936;51.006;13.764;2023-09-19T01:28:06;28;;;13;;
75342;SDS011;63936;51.006;13.764;2023-09-19T01:30:07;27;;;13;;
75342;SDS011;63936;51.006;13.764;2023-09-19T01:32:02;26;;;13;;
75342;SDS011;63936;51.006;13.764;2023-09-19T01:34:02;31;;;15;;
75342;SDS011;63936;51.006;13.764;2023-09-19T01:36:01;31;;;14;;
75342;SDS011;63936;51.006;13.764;2023-09-19T01:38:02;30;;;15;;
75342;SDS011;63936;51.006;13.764;2023-09-19T01:40:06;35;;;18;;
75342;SDS011;63936;51.006;13.764;2023-09-19T01:42:05;36;;;17;;
75342;SDS011;63936;51.006;13.764;2023-09-19T01:44:02;31;;;15;;
75342;SDS011;63936;51.006;13.764;2023-09-19T01:46:04;32;;;16;;
75342;SDS011;63936;51.006;13.764;2023-09-19T01:48:05;32;;;16;;
75342;SDS011;63936;51.006;13.764;2023-09-19T01:50:07;32;;;16;;
75342;SDS011;63936;51.006;13.764;2023-09-19T01:52:04;33;;;16;;
75342;SDS011;63936;51.006;13.764;2023-09-19T01:54:03;37;;;17;;
75342;SDS011;63936;51.006;13.764;2023-09-19T01:56:03;26;;;13;;
75342;SDS011;63936;51.006;13.764;2023-09-19T01:58:04;31;;;15;;
75342;SDS011;63936;51.006;13.764;2023-09-19T02:00:06;32;;;16;;
75342;SDS011;63936;51.006;13.764;2023-09-19T02:02:02;34;;;16;;
75342;SDS011;63936;51.006;13.764;2023-09-19T02:04:02;34;;;16;;
75342;SDS011;63936;51.006;13.764;2023-09-19T02:06:02;33;;;15;;
75342;SDS011;63936;51.006;13.764;2023-09-19T02:08:01;29;;;14;;
75342;SDS011;63936;51.006;13.764;2023-09-19T02:10:03;31;;;15;;
75342;SDS011;63936;51.006;13.764;2023-09-19T02:12:03;31;;;16;;
75342;SDS011;63936;51.006;13.764;2023-09-19T02:14:02;31;;;15;;
75342;SDS011;63936;51.006;13.764;2023-09-19T02:16:02;32;;;15;;
75342;SDS011;63936;51.006;13.764;2023-09-19T02:18:02;35;;;16;;
75342;SDS011;63936;51.006;13.764;2023-09-19T02:20:04;31;;;15;;
75342;SDS011;63936;51.006;13.764;2023-09-19T02:22:02;33;;;15;;
75342;SDS011;63936;51.006;13.764;2023-09-19T02:24:02;34;;;16;;
75342;SDS011;63936;51.006;13.764;2023-09-19T02:26:01;35;;;17;;
75342;SDS011;63936;51.006;13.764;2023-09-19T02:28:01;34;;;17;;
75342;SDS011;63936;51.006;13.764;2023-09-19T02:30:02;34;;;17;;
75342;SDS011;63936;51.006;13.764;2023-09-19T02:32:01;37;;;17;;
75342;SDS011;63936;51.006;13.764;2023-09-19T02:34:01;37;;;17;;
75342;SDS011;63936;51.006;13.764;2023-09-19T02:36:01;32;;;16;;
75342;SDS011;63936;51.006;13.764;2023-09-19T02:38:02;33;;;17;;
75342;SDS011;63936;51.006;13.764;2023-09-19T02:40:03;29;;;14;;
75342;SDS011;63936;51.006;13.764;2023-09-19T02:42:02;30;;;15;;
75342;SDS011;63936;51.006;13.764;2023-09-19T02:44:01;28;;;14;;
75342;SDS011;63936;51.006;13.764;2023-09-19T02:46:01;28;;;14;;
75342;SDS011;63936;51.006;13.764;2023-09-19T02:48:01;27;;;14;;
75342;SDS011;63936;51.006;13.764;2023-09-19T02:50:03;28;;;14;;
75342;SDS011;63936;51.006;13.764;2023-09-19T02:52:02;25;;;12;;
75342;SDS011;63936;51.006;13.764;2023-09-19T02:54:02;25;;;13;;
75342;SDS011;63936;51.006;13.764;2023-09-19T02:56:01;27;;;13;;
75342;SDS011;63936;51.006;13.764;2023-09-19T02:58:01;26;;;13;;
75342;SDS011;63936;51.006;13.764;2023-09-19T03:00:02;26;;;14;;
75342;SDS011;63936;51.006;13.764;2023-09-19T03:02:02;24;;;12;;
75342;SDS011;63936;51.006;13.764;2023-09-19T03:04:03;13;;;7;;
75342;SDS011;63936;51.006;13.764;2023-09-19T03:06:02;11;;;6;;
75342;SDS011;63936;51.006;13.764;2023-09-19T03:08:02;6;;;3;;
75342;SDS011;63936;51.006;13.764;2023-09-19T03:10:03;7;;;3;;
75342;SDS011;63936;51.006;13.764;2023-09-19T03:12:02;6;;;3;;
75342;SDS011;63936;51.006;13.764;2023-09-19T03:14:02;6;;;3;;
75342;SDS011;63936;51.006;13.764;2023-09-19T03:16:01;6;;;2;;
75342;SDS011;63936;51.006;13.764;2023-09-19T03:18:01;9;;;3;;
75342;SDS011;63936;51.006;13.764;2023-09-19T03:20:01;8;;;4;;
75342;SDS011;63936;51.006;13.764;2023-09-19T03:22:01;9;;;4;;
75342;SDS011;63936;51.006;13.764;2023-09-19T03:24:01;11;;;6;;
75342;SDS011;63936;51.006;13.764;2023-09-19T03:26:01;10;;;6;;
75342;SDS011;63936;51.006;13.764;2023-09-19T03:28:01;8;;;4;;
75342;SDS011;63936;51.006;13.764;2023-09-19T03:30:02;7;;;4;;
75342;SDS011;63936;51.006;13.764;2023-09-19T03:32:02;6;;;3;;
75342;SDS011;63936;51.006;13.764;2023-09-19T03:34:02;7;;;3;;
75342;SDS011;63936;51.006;13.764;2023-09-19T03:36:02;7;;;3;;
75342;SDS011;63936;51.006;13.764;2023-09-19T03:38:02;7;;;3;;
75342;SDS011;63936;51.006;13.764;2023-09-19T03:40:01;6;;;3;;
75342;SDS011;63936;51.006;13.764;2023-09-19T03:42:01;6;;;2;;
75342;SDS011;63936;51.006;13.764;2023-09-19T03:44:01;6;;;2;;
75342;SDS011;63936;51.006;13.764;2023-09-19T03:46:01;6;;;2;;
75342;SDS011;63936;51.006;13.764;2023-09-19T03:48:01;6;;;2;;
75342;SDS011;63936;51.006;13.764;2023-09-19T03:50:02;6;;;2;;
75342;SDS011;63936;51.006;13.764;2023-09-19T03:52:02;5;;;2;;
75342;SDS011;63936;51.006;13.764;2023-09-19T03:54:02;5;;;2;;
75342;SDS011;63936;51.006;13.764;2023-09-19T03:56:01;5;;;2;;
75342;SDS011;63936;51.006;13.764;2023-09-19T03:58:01;5;;;2;;
75342;SDS011;63936;51.006;13.764;2023-09-19T04:00:01;7;;;2;;
75342;SDS011;63936;51.006;13.764;2023-09-19T04:02:01;7;;;2;;
75342;SDS011;63936;51.006;13.764;2023-09-19T04:04:01;5;;;2;;
75342;SDS011;63936;51.006;13.764;2023-09-19T04:06:01;6;;;2;;
75342;SDS011;63936;51.006;13.764;2023-09-19T04:08:01;6;;;2;;
75342;SDS011;63936;51.006;13.764;2023-09-19T04:10:02;6;;;2;;
75342;SDS011;63936;51.006;13.764;2023-09-19T04:12:02;6;;;2;;
75342;SDS011;63936;51.006;13.764;2023-09-19T04:14:03;6;;;2;;
75342;SDS011;63936;51.006;13.764;2023-09-19T04:16:02;6;;;2;;
75342;SDS011;63936;51.006;13.764;2023-09-19T04:18:01;6;;;2;;
75342;SDS011;63936;51.006;13.764;2023-09-19T04:20:02;6;;;2;;
75342;SDS011;63936;51.006;13.764;2023-09-19T04:22:02;7;;;2;;
75342;SDS011;63936;51.006;13.764;2023-09-19T04:24:01;7;;;2;;
75342;SDS011;63936;51.006;13.764;2023-09-19T04:26:02;5;;;2;;
75342;SDS011;63936;51.006;13.764;2023-09-19T04:28:01;5;;;2;;
75342;SDS011;63936;51.006;13.764;2023-09-19T04:30:03;5;;;2;;
75342;SDS011;63936;51.006;13.764;2023-09-19T04:32:02;6;;;2;;
75342;SDS011;63936;51.006;13.764;2023-09-19T04:34:01;7;;;2;;
75342;SDS011;63936;51.006;13.764;2023-09-19T04:36:02;7;;;2;;
75342;SDS011;63936;51.006;13.764;2023-09-19T04:38:02;7;;;3;;
75342;SDS011;63936;51.006;13.764;2023-09-19T04:40:02;8;;;5;;
75342;SDS011;63936;51.006;13.764;2023-09-19T04:42:02;10;;;5;;
75342;SDS011;63936;51.006;13.764;2023-09-19T04:44:02;8;;;4;;
75342;SDS011;63936;51.006;13.764;2023-09-19T04:46:01;6;;;3;;
75342;SDS011;63936;51.006;13.764;2023-09-19T04:48:01;7;;;3;;
75342;SDS011;63936;51.006;13.764;2023-09-19T04:50:02;6;;;2;;
75342;SDS011;63936;51.006;13.764;2023-09-19T04:52:02;6;;;2;;
75342;SDS011;63936;51.006;13.764;2023-09-19T04:54:02;6;;;2;;
75342;SDS011;63936;51.006;13.764;2023-09-19T04:56:01;6;;;2;;
75342;SDS011;63936;51.006;13.764;2023-09-19T04:58:02;5;;;2;;
75342;SDS011;63936;51.006;13.764;2023-09-19T05:00:04;5;;;2;;
75342;SDS011;63936;51.006;13.764;2023-09-19T05:02:03;5;;;2;;
75342;SDS011;63936;51.006;13.764;2023-09-19T05:04:02;5;;;2;;
75342;SDS011;63936;51.006;13.764;2023-09-19T05:06:01;5;;;2;;
75342;SDS011;63936;51.006;13.764;2023-09-19T05:08:01;5;;;2;;
75342;SDS011;63936;51.006;13.764;2023-09-19T05:10:04;5;;;2;;
75342;SDS011;63936;51.006;13.764;2023-09-19T05:12:01;5;;;2;;
75342;SDS011;63936;51.006;13.764;2023-09-19T05:14:01;5;;;2;;
75342;SDS011;63936;51.006;13.764;2023-09-19T05:16:02;5;;;2;;
75342;SDS011;63936;51.006;13.764;2023-09-19T05:18:02;4;;;2;;
75342;SDS011;63936;51.006;13.764;2023-09-19T05:20:01;5;;;2;;
75342;SDS011;63936;51.006;13.764;2023-09-19T05:22:01;5;;;2;;
75342;SDS011;63936;51.006;13.764;2023-09-19T05:24:01;5;;;2;;
75342;SDS011;63936;51.006;13.764;2023-09-19T05:26:02;6;;;2;;
75342;SDS011;63936;51.006;13.764;2023-09-19T05:28:02;6;;;2;;
75342;SDS011;63936;51.006;13.764;2023-09-19T05:30:04;6;;;2;;
75342;SDS011;63936;51.006;13.764;2023-09-19T05:32:02;6;;;2;;
75342;SDS011;63936;51.006;13.764;2023-09-19T05:34:02;6;;;2;;
75342;SDS011;63936;51.006;13.764;2023-09-19T05:36:01;5;;;2;;
75342;SDS011;63936;51.006;13.764;2023-09-19T05:38:02;5;;;2;;
75342;SDS011;63936;51.006;13.764;2023-09-19T05:40:04;6;;;2;;
75342;SDS011;63936;51.006;13.764;2023-09-19T05:42:03;6;;;2;;
75342;SDS011;63936;51.006;13.764;2023-09-19T05:44:02;6;;;2;;
75342;SDS011;63936;51.006;13.764;2023-09-19T05:46:01;5;;;2;;
75342;SDS011;63936;51.006;13.764;2023-09-19T05:48:07;5;;;2;;
75342;SDS011;63936;51.006;13.764;2023-09-19T05:50:03;5;;;1;;
75342;SDS011;63936;51.006;13.764;2023-09-19T05:52:02;5;;;1;;
75342;SDS011;63936;51.006;13.764;2023-09-19T05:54:01;5;;;2;;
75342;SDS011;63936;51.006;13.764;2023-09-19T05:56:01;5;;;2;;
75342;SDS011;63936;51.006;13.764;2023-09-19T05:58:01;4;;;2;;
75342;SDS011;63936;51.006;13.764;2023-09-19T06:00:03;5;;;2;;
75342;SDS011;63936;51.006;13.764;2023-09-19T06:02:02;5;;;2;;
75342;SDS011;63936;51.006;13.764;2023-09-19T06:04:01;5;;;2;;
75342;SDS011;63936;51.006;13.764;2023-09-19T06:06:02;4;;;1;;
75342;SDS011;63936;51.006;13.764;2023-09-19T06:08:02;5;;;2;;
75342;SDS011;63936;51.006;13.764;2023-09-19T06:10:08;5;;;2;;
75342;SDS011;63936;51.006;13.764;2023-09-19T06:12:01;4;;;1;;
75342;SDS011;63936;51.006;13.764;2023-09-19T06:14:01;4;;;1;;
75342;SDS011;63936;51.006;13.764;2023-09-19T06:16:02;5;;;1;;
75342;SDS011;63936;51.006;13.764;2023-09-19T06:18:02;4;;;2;;
75342;SDS011;63936;51.006;13.764;2023-09-19T06:20:03;4;;;2;;
75342;SDS011;63936;51.006;13.764;2023-09-19T06:22:01;5;;;1;;
75342;SDS011;63936;51.006;13.764;2023-09-19T06:24:01;5;;;2;;
75342;SDS011;63936;51.006;13.764;2023-09-19T06:26:01;6;;;2;;
75342;SDS011;63936;51.006;13.764;2023-09-19T06:28:01;5;;;1;;
75342;SDS011;63936;51.006;13.764;2023-09-19T06:30:02;7;;;1;;
75342;SDS011;63936;51.006;13.764;2023-09-19T06:32:02;5;;;1;;
75342;SDS011;63936;51.006;13.764;2023-09-19T06:34:01;5;;;2;;
75342;SDS011;63936;51.006;13.764;2023-09-19T06:36:02;4;;;2;;
75342;SDS011;63936;51.006;13.764;2023-09-19T06:38:02;4;;;1;;
75342;SDS011;63936;51.006;13.764;2023-09-19T06:40:02;5;;;1;;
75342;SDS011;63936;51.006;13.764;2023-09-19T06:42:01;5;;;1;;
75342;SDS011;63936;51.006;13.764;2023-09-19T06:44:01;5;;;2;;
75342;SDS011;63936;51.006;13.764;2023-09-19T06:46:01;5;;;2;;
75342;SDS011;63936;51.006;13.764;2023-09-19T06:48:02;5;;;2;;
75342;SDS011;63936;51.006;13.764;2023-09-19T06:50:02;5;;;1;;
75342;SDS011;63936;51.006;13.764;2023-09-19T06:52:02;5;;;1;;
75342;SDS011;63936;51.006;13.764;2023-09-19T06:54:02;5;;;1;;
75342;SDS011;63936;51.006;13.764;2023-09-19T06:56:01;5;;;1;;
75342;SDS011;63936;51.006;13.764;2023-09-19T06:58:01;6;;;1;;
75342;SDS011;63936;51.006;13.764;2023-09-19T07:00:07;5;;;2;;
75342;SDS011;63936;51.006;13.764;2023-09-19T07:02:02;5;;;1;;
75342;SDS011;63936;51.006;13.764;2023-09-19T07:04:01;4;;;1;;
75342;SDS011;63936;51.006;13.764;2023-09-19T07:06:01;5;;;2;;
75342;SDS011;63936;51.006;13.764;2023-09-19T07:08:01;4;;;1;;
75342;SDS011;63936;51.006;13.764;2023-09-19T07:10:02;5;;;2;;
75342;SDS011;63936;51.006;13.764;2023-09-19T07:12:02;5;;;1;;
75342;SDS011;63936;51.006;13.764;2023-09-19T07:14:02;5;;;1;;
75342;SDS011;63936;51.006;13.764;2023-09-19T07:16:02;4;;;1;;
75342;SDS011;63936;51.006;13.764;2023-09-19T07:18:01;5;;;1;;
75342;SDS011;63936;51.006;13.764;2023-09-19T07:20:02;6;;;1;;
75342;SDS011;63936;51.006;13.764;2023-09-19T07:22:01;4;;;1;;
75342;SDS011;63936;51.006;13.764;2023-09-19T07:24:01;5;;;1;;
75342;SDS011;63936;51.006;13.764;2023-09-19T07:26:01;5;;;1;;
75342;SDS011;63936;51.006;13.764;2023-09-19T07:28:01;5;;;1;;
75342;SDS011;63936;51.006;13.764;2023-09-19T07:30:02;4;;;1;;
75342;SDS011;63936;51.006;13.764;2023-09-19T07:32:02;4;;;1;;
75342;SDS011;63936;51.006;13.764;2023-09-19T07:34:01;4;;;1;;
75342;SDS011;63936;51.006;13.764;2023-09-19T07:36:02;4;;;1;;
75342;SDS011;63936;51.006;13.764;2023-09-19T07:38:02;4;;;1;;
75342;SDS011;63936;51.006;13.764;2023-09-19T07:40:01;4;;;1;;
75342;SDS011;63936;51.006;13.764;2023-09-19T07:42:01;3;;;1;;
75342;SDS011;63936;51.006;13.764;2023-09-19T07:44:01;3;;;1;;
75342;SDS011;63936;51.006;13.764;2023-09-19T07:46:03;4;;;1;;
75342;SDS011;63936;51.006;13.764;2023-09-19T07:48:01;4;;;1;;
75342;SDS011;63936;51.006;13.764;2023-09-19T07:50:02;6;;;2;;
75342;SDS011;63936;51.006;13.764;2023-09-19T07:52:01;6;;;1;;
75342;SDS011;63936;51.006;13.764;2023-09-19T07:54:02;4;;;1;;
75342;SDS011;63936;51.006;13.764;2023-09-19T07:56:02;4;;;1;;
75342;SDS011;63936;51.006;13.764;2023-09-19T07:58:02;3;;;1;;
75342;SDS011;63936;51.006;13.764;2023-09-19T08:00:02;4;;;1;;
75342;SDS011;63936;51.006;13.764;2023-09-19T08:02:01;4;;;1;;
75342;SDS011;63936;51.006;13.764;2023-09-19T08:04:01;4;;;1;;
75342;SDS011;63936;51.006;13.764;2023-09-19T08:06:01;4;;;1;;
75342;SDS011;63936;51.006;13.764;2023-09-19T08:08:01;4;;;1;;
75342;SDS011;63936;51.006;13.764;2023-09-19T08:10:02;4;;;1;;
75342;SDS011;63936;51.006;13.764;2023-09-19T08:12:02;4;;;1;;
75342;SDS011;63936;51.006;13.764;2023-09-19T08:14:02;4;;;1;;
75342;SDS011;63936;51.006;13.764;2023-09-19T08:16:03;4;;;1;;
75342;SDS011;63936;51.006;13.764;2023-09-19T08:18:01;4;;;1;;
75342;SDS011;63936;51.006;13.764;2023-09-19T08:20:01;4;;;1;;
75342;SDS011;63936;51.006;13.764;2023-09-19T08:22:01;5;;;1;;
75342;SDS011;63936;51.006;13.764;2023-09-19T08:24:01;4;;;1;;
75342;SDS011;63936;51.006;13.764;2023-09-19T08:26:01;4;;;1;;
75342;SDS011;63936;51.006;13.764;2023-09-19T08:28:01;4;;;1;;
75342;SDS011;63936;51.006;13.764;2023-09-19T08:30:02;4;;;1;;
75342;SDS011;63936;51.006;13.764;2023-09-19T08:32:01;5;;;1;;
75342;SDS011;63936;51.006;13.764;2023-09-19T08:34:01;4;;;1;;
75342;SDS011;63936;51.006;13.764;2023-09-19T08:36:02;3;;;1;;
75342;SDS011;63936;51.006;13.764;2023-09-19T08:38:02;6;;;1;;
75342;SDS011;63936;51.006;13.764;2023-09-19T08:40:02;5;;;1;;
75342;SDS011;63936;51.006;13.764;2023-09-19T08:42:01;4;;;1;;
75342;SDS011;63936;51.006;13.764;2023-09-19T08:44:01;5;;;1;;
75342;SDS011;63936;51.006;13.764;2023-09-19T08:46:03;3;;;1;;
75342;SDS011;63936;51.006;13.764;2023-09-19T08:48:06;4;;;1;;
75342;SDS011;63936;51.006;13.764;2023-09-19T08:50:03;6;;;1;;
75342;SDS011;63936;51.006;13.764;2023-09-19T08:52:04;6;;;1;;
75342;SDS011;63936;51.006;13.764;2023-09-19T08:54:03;4;;;1;;
75342;SDS011;63936;51.006;13.764;2023-09-19T08:56:01;4;;;1;;
75342;SDS011;63936;51.006;13.764;2023-09-19T08:58:03;3;;;1;;
75342;SDS011;63936;51.006;13.764;2023-09-19T09:00:02;4;;;1;;
75342;SDS011;63936;51.006;13.764;2023-09-19T09:02:01;5;;;1;;
75342;SDS011;63936;51.006;13.764;2023-09-19T09:04:01;5;;;1;;
75342;SDS011;63936;51.006;13.764;2023-09-19T09:06:01;5;;;1;;
75342;SDS011;63936;51.006;13.764;2023-09-19T09:08:01;6;;;1;;
75342;SDS011;63936;51.006;13.764;2023-09-19T09:10:02;5;;;1;;
75342;SDS011;63936;51.006;13.764;2023-09-19T09:12:01;4;;;1;;
75342;SDS011;63936;51.006;13.764;2023-09-19T09:14:01;3;;;1;;
75342;SDS011;63936;51.006;13.764;2023-09-19T09:16:01;3;;;1;;
75342;SDS011;63936;51.006;13.764;2023-09-19T09:18:01;4;;;1;;
75342;SDS011;63936;51.006;13.764;2023-09-19T09:20:02;4;;;1;;
75342;SDS011;63936;51.006;13.764;2023-09-19T09:22:06;4;;;1;;
75342;SDS011;63936;51.006;13.764;2023-09-19T09:24:20;4;;;1;;
75342;SDS011;63936;51.006;13.764;2023-09-19T09:26:01;3;;;1;;
75342;SDS011;63936;51.006;13.764;2023-09-19T09:28:01;3;;;1;;
75342;SDS011;63936;51.006;13.764;2023-09-19T09:30:02;4;;;1;;
75342;SDS011;63936;51.006;13.764;2023-09-19T09:32:15;4;;;1;;
75342;SDS011;63936;51.006;13.764;2023-09-19T09:34:02;4;;;1;;
75342;SDS011;63936;51.006;13.764;2023-09-19T09:36:02;4;;;1;;
75342;SDS011;63936;51.006;13.764;2023-09-19T09:38:02;4;;;1;;
75342;SDS011;63936;51.006;13.764;2023-09-19T09:40:02;4;;;1;;
75342;SDS011;63936;51.006;13.764;2023-09-19T09:42:02;4;;;1;;
75342;SDS011;63936;51.006;13.764;2023-09-19T09:44:05;6;;;1;;
75342;SDS011;63936;51.006;13.764;2023-09-19T09:46:10;4;;;1;;
75342;SDS011;63936;51.006;13.764;2023-09-19T09:48:02;5;;;1;;
75342;SDS011;63936;51.006;13.764;2023-09-19T09:50:03;4;;;1;;
75342;SDS011;63936;51.006;13.764;2023-09-19T09:52:02;4;;;1;;
75342;SDS011;63936;51.006;13.764;2023-09-19T09:54:09;4;;;1;;
75342;SDS011;63936;51.006;13.764;2023-09-19T09:56:02;4;;;1;;
75342;SDS011;63936;51.006;13.764;2023-09-19T09:58:16;4;;;1;;
75342;SDS011;63936;51.006;13.764;2023-09-19T10:00:02;5;;;1;;
75342;SDS011;63936;51.006;13.764;2023-09-19T10:02:01;5;;;1;;
75342;SDS011;63936;51.006;13.764;2023-09-19T10:04:01;5;;;1;;
75342;SDS011;63936;51.006;13.764;2023-09-19T10:06:01;3;;;1;;
75342;SDS011;63936;51.006;13.764;2023-09-19T10:08:10;3;;;1;;
75342;SDS011;63936;51.006;13.764;2023-09-19T10:10:02;5;;;1;;
75342;SDS011;63936;51.006;13.764;2023-09-19T10:12:03;4;;;1;;
75342;SDS011;63936;51.006;13.764;2023-09-19T10:14:01;4;;;1;;
75342;SDS011;63936;51.006;13.764;2023-09-19T10:16:03;5;;;1;;
75342;SDS011;63936;51.006;13.764;2023-09-19T10:18:01;4;;;1;;
75342;SDS011;63936;51.006;13.764;2023-09-19T10:20:02;4;;;1;;
75342;SDS011;63936;51.006;13.764;2023-09-19T10:22:01;5;;;1;;
75342;SDS011;63936;51.006;13.764;2023-09-19T10:24:01;4;;;1;;
75342;SDS011;63936;51.006;13.764;2023-09-19T10:26:01;4;;;1;;
75342;SDS011;63936;51.006;13.764;2023-09-19T10:28:01;4;;;1;;
75342;SDS011;63936;51.006;13.764;2023-09-19T10:30:02;4;;;1;;
75342;SDS011;63936;51.006;13.764;2023-09-19T10:32:02;4;;;1;;
75342;SDS011;63936;51.006;13.764;2023-09-19T10:34:02;4;;;1;;
75342;SDS011;63936;51.006;13.764;2023-09-19T10:36:01;3;;;1;;
75342;SDS011;63936;51.006;13.764;2023-09-19T10:38:02;4;;;1;;
75342;SDS011;63936;51.006;13.764;2023-09-19T10:40:01;3;;;1;;
75342;SDS011;63936;51.006;13.764;2023-09-19T10:42:01;4;;;1;;
75342;SDS011;63936;51.006;13.764;2023-09-19T10:44:01;5;;;1;;
75342;SDS011;63936;51.006;13.764;2023-09-19T10:46:02;4;;;1;;
75342;SDS011;63936;51.006;13.764;2023-09-19T10:48:02;4;;;1;;
75342;SDS011;63936;51.006;13.764;2023-09-19T10:50:02;6;;;1;;
75342;SDS011;63936;51.006;13.764;2023-09-19T10:52:01;5;;;1;;
75342;SDS011;63936;51.006;13.764;2023-09-19T10:54:01;3;;;1;;
75342;SDS011;63936;51.006;13.764;2023-09-19T10:56:01;3;;;1;;
75342;SDS011;63936;51.006;13.764;2023-09-19T10:58:01;3;;;1;;
75342;SDS011;63936;51.006;13.764;2023-09-19T11:00:03;7;;;1;;
75342;SDS011;63936;51.006;13.764;2023-09-19T11:02:15;3;;;1;;
75342;SDS011;63936;51.006;13.764;2023-09-19T11:04:20;4;;;1;;
75342;SDS011;63936;51.006;13.764;2023-09-19T11:06:03;4;;;1;;
75342;SDS011;63936;51.006;13.764;2023-09-19T11:08:02;4;;;1;;
75342;SDS011;63936;51.006;13.764;2023-09-19T11:10:02;6;;;1;;
75342;SDS011;63936;51.006;13.764;2023-09-19T11:12:02;3;;;1;;
75342;SDS011;63936;51.006;13.764;2023-09-19T11:15:05;3;;;1;;
75342;SDS011;63936;51.006;13.764;2023-09-19T11:16:03;4;;;1;;
75342;SDS011;63936;51.006;13.764;2023-09-19T11:18:02;8;;;1;;
75342;SDS011;63936;51.006;13.764;2023-09-19T11:20:33;3;;;1;;
75342;SDS011;63936;51.006;13.764;2023-09-19T11:22:01;4;;;1;;
75342;SDS011;63936;51.006;13.764;2023-09-19T11:24:32;4;;;1;;
75342;SDS011;63936;51.006;13.764;2023-09-19T11:26:01;9;;;1;;
75342;SDS011;63936;51.006;13.764;2023-09-19T11:28:27;4;;;1;;
75342;SDS011;63936;51.006;13.764;2023-09-19T11:30:25;5;;;1;;
75342;SDS011;63936;51.006;13.764;2023-09-19T11:32:02;4;;;1;;
75342;SDS011;63936;51.006;13.764;2023-09-19T11:34:37;4;;;1;;
75342;SDS011;63936;51.006;13.764;2023-09-19T11:36:02;5;;;1;;
75342;SDS011;63936;51.006;13.764;2023-09-19T11:38:02;4;;;1;;
75342;SDS011;63936;51.006;13.764;2023-09-19T11:40:05;3;;;1;;
75342;SDS011;63936;51.006;13.764;2023-09-19T11:42:01;3;;;1;;
75342;SDS011;63936;51.006;13.764;2023-09-19T11:44:33;4;;;1;;
75342;SDS011;63936;51.006;13.764;2023-09-19T11:46:05;4;;;1;;
75342;SDS011;63936;51.006;13.764;2023-09-19T11:48:02;5;;;1;;
75342;SDS011;63936;51.006;13.764;2023-09-19T11:50:02;5;;;1;;
75342;SDS011;63936;51.006;13.764;2023-09-19T11:52:01;5;;;1;;
75342;SDS011;63936;51.006;13.764;2023-09-19T11:54:01;5;;;1;;
75342;SDS011;63936;51.006;13.764;2023-09-19T11:56:01;5;;;1;;
75342;SDS011;63936;51.006;13.764;2023-09-19T11:58:01;4;;;1;;
75342;SDS011;63936;51.006;13.764;2023-09-19T12:00:02;5;;;1;;
75342;SDS011;63936;51.006;13.764;2023-09-19T12:02:03;4;;;1;;
75342;SDS011;63936;51.006;13.764;2023-09-19T12:04:02;3;;;1;;
75342;SDS011;63936;51.006;13.764;2023-09-19T12:06:02;3;;;1;;
75342;SDS011;63936;51.006;13.764;2023-09-19T12:08:02;4;;;1;;
75342;SDS011;63936;51.006;13.764;2023-09-19T12:10:03;4;;;1;;
75342;SDS011;63936;51.006;13.764;2023-09-19T12:12:01;5;;;1;;
75342;SDS011;63936;51.006;13.764;2023-09-19T12:14:01;6;;;1;;
75342;SDS011;63936;51.006;13.764;2023-09-19T12:16:01;4;;;1;;
75342;SDS011;63936;51.006;13.764;2023-09-19T12:18:02;4;;;1;;
75342;SDS011;63936;51.006;13.764;2023-09-19T12:20:02;4;;;1;;
75342;SDS011;63936;51.006;13.764;2023-09-19T12:22:02;4;;;1;;
75342;SDS011;63936;51.006;13.764;2023-09-19T12:24:05;4;;;1;;
75342;SDS011;63936;51.006;13.764;2023-09-19T12:26:01;6;;;1;;
75342;SDS011;63936;51.006;13.764;2023-09-19T12:28:01;5;;;1;;
75342;SDS011;63936;51.006;13.764;2023-09-19T12:30:02;5;;;1;;
75342;SDS011;63936;51.006;13.764;2023-09-19T12:32:01;5;;;1;;
75342;SDS011;63936;51.006;13.764;2023-09-19T12:34:01;4;;;1;;
75342;SDS011;63936;51.006;13.764;2023-09-19T12:36:03;4;;;1;;
75342;SDS011;63936;51.006;13.764;2023-09-19T12:38:01;4;;;1;;
75342;SDS011;63936;51.006;13.764;2023-09-19T12:40:03;3;;;1;;
75342;SDS011;63936;51.006;13.764;2023-09-19T12:42:02;4;;;1;;
75342;SDS011;63936;51.006;13.764;2023-09-19T12:44:01;6;;;1;;
75342;SDS011;63936;51.006;13.764;2023-09-19T12:46:02;6;;;1;;
75342;SDS011;63936;51.006;13.764;2023-09-19T12:48:17;3;;;1;;
75342;SDS011;63936;51.006;13.764;2023-09-19T12:50:05;3;;;1;;
75342;SDS011;63936;51.006;13.764;2023-09-19T12:52:01;3;;;1;;
75342;SDS011;63936;51.006;13.764;2023-09-19T12:54:01;7;;;1;;
75342;SDS011;63936;51.006;13.764;2023-09-19T12:56:01;4;;;1;;